createdAt,value
2018-02-17T00:00:05.010Z,0.60
2018-02-17T00:02:34.086Z,0.50
2018-02-17T00:05:03.166Z,0.50
2018-02-17T00:07:33.670Z,0.40
2018-02-17T00:10:02.749Z,0.30
2018-02-17T00:12:31.824Z,0.30
2018-02-17T00:15:01.710Z,0.30
2018-02-17T00:17:30.782Z,0.30
2018-02-17T00:19:59.902Z,0.40
2018-02-17T00:22:28.982Z,0.30
2018-02-17T00:24:58.970Z,0.20
2018-02-17T00:27:28.078Z,0.10
2018-02-17T00:29:57.167Z,0.20
2018-02-17T00:32:26.246Z,0.00
2018-02-17T00:34:55.326Z,0.10
2018-02-17T00:37:24.403Z,0.00
2018-02-17T00:39:53.505Z,0.10
2018-02-17T00:42:22.582Z,0.10
2018-02-17T00:44:51.662Z,0.00
2018-02-17T00:47:20.806Z,0.10
2018-02-17T00:49:49.902Z,0.10
2018-02-17T00:52:18.978Z,0.00
2018-02-17T00:54:48.134Z,0.00
2018-02-17T00:57:17.280Z,0.00
2018-02-17T00:59:47.167Z,0.10
2018-02-17T01:02:16.303Z,0.10
2018-02-17T01:04:45.426Z,0.10
2018-02-17T01:07:15.310Z,0.00
2018-02-17T01:09:45.055Z,0.00
2018-02-17T01:12:14.218Z,0.00
2018-02-17T01:14:44.260Z,0.00
2018-02-17T01:17:13.366Z,0.00
2018-02-17T01:19:42.451Z,0.00
2018-02-17T01:22:11.562Z,0.00
2018-02-17T01:24:41.422Z,0.10
2018-02-17T01:27:10.498Z,0.00
2018-02-17T01:29:39.625Z,0.10
2018-02-17T01:32:09.469Z,0.00
2018-02-17T01:34:38.546Z,0.00
2018-02-17T01:37:07.635Z,0.00
2018-02-17T01:39:36.731Z,0.00
2018-02-17T01:42:06.038Z,-0.10
2018-02-17T01:44:35.130Z,0.00
2018-02-17T01:47:04.230Z,0.00
2018-02-17T01:49:33.343Z,0.00
2018-02-17T01:52:02.436Z,0.00
2018-02-17T01:54:32.374Z,0.10
2018-02-17T01:57:01.460Z,0.10
2018-02-17T01:59:30.651Z,0.20
2018-02-17T02:01:59.799Z,0.30
2018-02-17T02:04:29.650Z,0.50
2018-02-17T02:06:58.761Z,0.40
2018-02-17T02:09:27.837Z,0.60
2018-02-17T02:11:56.972Z,0.70
2018-02-17T02:14:26.074Z,0.80
2018-02-17T02:16:55.909Z,0.90
2018-02-17T02:19:24.977Z,0.90
2018-02-17T02:21:54.091Z,0.90
2018-02-17T02:24:23.194Z,0.90
2018-02-17T02:26:52.274Z,0.90
2018-02-17T02:29:21.448Z,0.90
2018-02-17T02:31:51.282Z,1.00
2018-02-17T02:34:21.178Z,1.10
2018-02-17T02:36:50.249Z,1.10
2018-02-17T02:39:19.348Z,1.10
2018-02-17T02:41:48.550Z,1.10
2018-02-17T02:44:18.415Z,1.20
2018-02-17T02:46:47.533Z,1.20
2018-02-17T02:49:16.601Z,1.20
2018-02-17T02:51:46.541Z,1.20
2018-02-17T02:54:15.643Z,1.20
2018-02-17T02:56:45.478Z,1.30
2018-02-17T02:59:14.587Z,1.20
2018-02-17T03:01:43.668Z,1.30
2018-02-17T03:04:12.774Z,1.10
2018-02-17T03:06:41.886Z,1.20
2018-02-17T03:09:10.957Z,1.10
2018-02-17T03:11:40.057Z,1.20
2018-02-17T03:14:09.129Z,1.10
2018-02-17T03:16:38.989Z,1.20
2018-02-17T03:19:08.058Z,1.20
2018-02-17T03:21:37.137Z,1.20
2018-02-17T03:24:06.262Z,1.30
2018-02-17T03:26:35.365Z,1.30
2018-02-17T03:29:04.433Z,1.30
2018-02-17T03:31:33.575Z,1.40
2018-02-17T03:34:02.674Z,1.50
2018-02-17T03:36:31.741Z,1.60
2018-02-17T03:39:01.581Z,1.60
2018-02-17T03:41:31.440Z,1.70
2018-02-17T03:44:00.649Z,1.70
2018-02-17T03:46:29.718Z,1.70
2018-02-17T03:48:59.633Z,1.70
2018-02-17T03:51:28.706Z,1.70
2018-02-17T03:53:57.779Z,1.70
2018-02-17T03:56:26.890Z,1.70
2018-02-17T03:58:56.225Z,1.60
2018-02-17T04:01:25.294Z,1.60
2018-02-17T04:03:55.134Z,1.50
2018-02-17T04:06:25.056Z,1.60
2018-02-17T04:08:54.921Z,1.60
2018-02-17T04:11:24.006Z,1.60
2018-02-17T04:13:53.091Z,1.60
2018-02-17T04:16:22.292Z,1.70
2018-02-17T04:18:51.359Z,1.80
2018-02-17T04:21:20.428Z,1.80
2018-02-17T04:23:50.273Z,1.80
2018-02-17T04:26:19.346Z,1.80
2018-02-17T04:28:48.419Z,1.70
2018-02-17T04:31:17.510Z,1.60
2018-02-17T04:33:46.657Z,1.60
2018-02-17T04:36:15.730Z,1.70
2018-02-17T04:38:44.800Z,1.60
2018-02-17T04:41:15.621Z,1.70
2018-02-17T04:43:50.063Z,1.80
2018-02-17T04:46:21.899Z,1.80
2018-02-17T04:48:54.094Z,1.70
2018-02-17T04:51:23.618Z,1.80
2018-02-17T04:57:01.575Z,1.80
2018-02-17T04:59:31.990Z,1.80
2018-02-17T05:02:22.758Z,1.90
2018-02-17T05:05:07.859Z,1.90
2018-02-17T05:07:49.001Z,1.70
2018-02-17T05:10:18.070Z,1.60
2018-02-17T05:12:47.329Z,1.60
2018-02-17T05:15:19.181Z,1.60
2018-02-17T05:17:49.937Z,1.60
2018-02-17T05:23:38.050Z,1.50
2018-02-17T05:29:14.422Z,1.80
2018-02-17T05:31:45.027Z,1.80
2018-02-17T05:37:18.995Z,1.60
2018-02-17T05:39:48.102Z,1.50
2018-02-17T05:42:23.083Z,1.50
2018-02-17T05:44:54.043Z,1.70
2018-02-17T05:47:27.754Z,1.80
2018-02-17T05:49:57.181Z,1.80
2018-02-17T05:52:27.149Z,1.70
2018-02-17T05:54:56.294Z,1.70
2018-02-17T05:57:25.442Z,1.80
2018-02-17T05:59:55.302Z,1.90
2018-02-17T06:02:24.445Z,1.90
2018-02-17T06:04:53.513Z,1.80
2018-02-17T06:07:22.577Z,1.80
2018-02-17T06:09:51.704Z,1.80
2018-02-17T06:12:21.533Z,1.90
2018-02-17T06:14:51.371Z,1.80
2018-02-17T06:17:20.465Z,1.80
2018-02-17T06:19:50.343Z,1.90
2018-02-17T06:22:19.417Z,1.90
2018-02-17T06:24:48.494Z,1.90
2018-02-17T06:27:17.567Z,2.00
2018-02-17T06:29:46.685Z,2.00
2018-02-17T06:32:15.835Z,2.00
2018-02-17T06:34:44.994Z,2.00
2018-02-17T06:37:14.061Z,1.90
2018-02-17T06:39:43.969Z,2.00
2018-02-17T06:42:13.029Z,2.00
2018-02-17T06:44:42.102Z,2.00
2018-02-17T06:47:12.002Z,2.00
2018-02-17T06:49:41.117Z,2.00
2018-02-17T06:52:10.223Z,2.00
2018-02-17T06:54:39.298Z,1.90
2018-02-17T06:57:08.378Z,1.90
2018-02-17T06:59:37.466Z,1.90
2018-02-17T07:02:06.627Z,2.00
2018-02-17T07:04:35.700Z,1.90
2018-02-17T07:07:05.542Z,2.10
2018-02-17T07:09:35.378Z,2.20
2018-02-17T07:12:04.453Z,2.20
2018-02-17T07:14:33.557Z,2.10
2018-02-17T07:17:02.636Z,2.10
2018-02-17T07:19:31.731Z,2.20
2018-02-17T07:22:00.802Z,2.30
2018-02-17T07:24:30.646Z,2.40
2018-02-17T07:26:59.753Z,2.40
2018-02-17T07:29:29.589Z,2.50
2018-02-17T07:31:59.417Z,2.40
2018-02-17T07:34:29.256Z,2.30
2018-02-17T07:36:59.574Z,2.30
2018-02-17T07:39:28.659Z,2.30
2018-02-17T07:41:57.746Z,2.50
2018-02-17T07:44:26.830Z,2.50
2018-02-17T07:46:55.898Z,2.60
2018-02-17T07:49:24.999Z,2.50
2018-02-17T07:51:54.081Z,2.60
2018-02-17T07:54:23.154Z,2.40
2018-02-17T07:56:52.310Z,2.50
2018-02-17T07:59:21.386Z,2.60
2018-02-17T08:01:50.474Z,2.60
2018-02-17T08:04:20.325Z,2.90
2018-02-17T08:06:49.410Z,2.90
2018-02-17T08:09:19.301Z,2.60
2018-02-17T08:11:48.382Z,2.60
2018-02-17T08:14:17.450Z,2.70
2018-02-17T08:16:47.314Z,2.80
2018-02-17T08:19:16.477Z,2.80
2018-02-17T08:21:45.545Z,2.90
2018-02-17T08:24:14.618Z,3.00
2018-02-17T08:26:44.453Z,2.90
2018-02-17T08:29:14.286Z,2.90
2018-02-17T08:31:43.386Z,2.90
2018-02-17T08:34:13.225Z,2.90
2018-02-17T08:36:42.366Z,2.80
2018-02-17T08:39:11.434Z,2.80
2018-02-17T08:41:41.303Z,2.90
2018-02-17T08:44:10.400Z,2.90
2018-02-17T08:46:39.487Z,3.10
2018-02-17T08:49:09.323Z,3.20
2018-02-17T08:51:38.479Z,3.20
2018-02-17T08:54:07.586Z,3.10
2018-02-17T08:56:37.426Z,3.30
2018-02-17T08:59:06.493Z,3.20
2018-02-17T09:01:35.567Z,3.40
2018-02-17T09:04:05.406Z,3.60
2018-02-17T09:06:35.243Z,3.50
2018-02-17T09:09:04.355Z,3.50
2018-02-17T09:11:34.195Z,3.50
2018-02-17T09:14:03.266Z,3.40
2018-02-17T09:16:32.365Z,3.60
2018-02-17T09:19:01.451Z,3.50
2018-02-17T09:21:30.530Z,3.50
2018-02-17T09:23:59.601Z,3.60
2018-02-17T09:26:28.671Z,3.70
2018-02-17T09:28:57.751Z,3.80
2018-02-17T09:31:27.588Z,3.80
2018-02-17T09:33:56.663Z,3.80
2018-02-17T09:36:25.770Z,3.70
2018-02-17T09:38:54.869Z,3.80
2018-02-17T09:41:23.954Z,3.90
2018-02-17T09:43:53.142Z,4.00
2018-02-17T09:46:22.214Z,4.10
2018-02-17T09:48:51.286Z,4.00
2018-02-17T09:51:20.366Z,4.10
2018-02-17T09:53:49.446Z,4.20
2018-02-17T09:56:18.566Z,4.40
2018-02-17T09:58:47.646Z,4.50
2018-02-17T10:01:16.745Z,4.20
2018-02-17T10:03:45.846Z,4.10
2018-02-17T10:06:14.932Z,4.20
2018-02-17T10:08:44.391Z,4.40
2018-02-17T10:11:13.478Z,4.40
2018-02-17T10:13:42.609Z,4.60
2018-02-17T10:16:11.701Z,4.80
2018-02-17T10:18:40.793Z,5.00
2018-02-17T10:21:10.004Z,5.10
2018-02-17T10:23:39.071Z,5.20
2018-02-17T10:26:08.211Z,5.20
2018-02-17T10:28:38.042Z,5.00
2018-02-17T10:31:07.114Z,5.00
2018-02-17T10:33:36.185Z,5.20
2018-02-17T10:36:05.272Z,5.40
2018-02-17T10:38:37.286Z,5.50
2018-02-17T10:41:06.467Z,5.40
2018-02-17T10:43:35.555Z,5.60
2018-02-17T10:46:05.403Z,5.70
2018-02-17T10:48:34.591Z,5.70
2018-02-17T10:51:03.642Z,5.80
2018-02-17T10:53:32.724Z,6.00
2018-02-17T10:56:02.574Z,6.20
2018-02-17T10:58:31.646Z,6.20
2018-02-17T11:01:00.808Z,6.20
2018-02-17T11:03:29.883Z,6.30
2018-02-17T11:05:59.729Z,6.10
2018-02-17T11:08:28.869Z,6.10
2018-02-17T11:10:57.987Z,6.30
2018-02-17T11:13:27.127Z,6.40
2018-02-17T11:15:56.213Z,6.30
2018-02-17T11:18:25.281Z,6.30
2018-02-17T11:20:54.355Z,6.50
2018-02-17T11:23:23.421Z,6.70
2018-02-17T11:25:53.405Z,6.70
2018-02-17T11:28:23.252Z,6.60
2018-02-17T11:30:52.329Z,6.60
2018-02-17T11:33:21.438Z,6.60
2018-02-17T11:35:50.522Z,6.90
2018-02-17T11:38:19.670Z,7.00
2018-02-17T11:40:48.782Z,6.50
2018-02-17T11:43:17.901Z,6.70
2018-02-17T11:45:47.948Z,7.00
2018-02-17T11:48:17.062Z,7.00
2018-02-17T11:50:46.150Z,7.20
2018-02-17T11:53:15.986Z,7.40
2018-02-17T11:55:45.121Z,7.30
2018-02-17T11:58:14.213Z,7.30
2018-02-17T12:00:43.319Z,7.40
2018-02-17T12:03:12.416Z,7.40
2018-02-17T12:05:42.284Z,7.50
2018-02-17T12:08:11.350Z,7.50
2018-02-17T12:10:41.204Z,7.30
2018-02-17T12:13:10.270Z,7.30
2018-02-17T12:15:39.347Z,7.30
2018-02-17T12:18:08.450Z,7.40
2018-02-17T12:20:37.561Z,7.50
2018-02-17T12:23:06.631Z,7.60
2018-02-17T12:25:36.562Z,7.60
2018-02-17T12:28:05.696Z,7.50
2018-02-17T12:30:34.830Z,7.50
2018-02-17T12:33:03.901Z,7.70
2018-02-17T12:35:33.756Z,7.20
2018-02-17T12:38:02.842Z,7.20
2018-02-17T12:40:32.895Z,7.60
2018-02-17T12:43:01.982Z,7.50
2018-02-17T12:45:31.817Z,7.40
2018-02-17T12:48:00.910Z,7.40
2018-02-17T12:50:30.837Z,7.20
2018-02-17T12:53:01.039Z,7.30
2018-02-17T12:55:30.139Z,7.30
2018-02-17T12:57:59.209Z,7.30
2018-02-17T13:00:28.622Z,7.30
2018-02-17T13:02:58.463Z,6.90
2018-02-17T13:05:27.538Z,6.90
2018-02-17T13:07:56.696Z,6.90
2018-02-17T13:10:25.766Z,6.90
2018-02-17T13:12:55.605Z,6.40
2018-02-17T13:15:25.503Z,6.30
2018-02-17T13:17:54.573Z,6.30
2018-02-17T13:20:23.644Z,6.30
2018-02-17T13:22:53.902Z,6.50
2018-02-17T13:25:23.588Z,6.50
2018-02-17T13:27:52.653Z,6.30
2018-02-17T13:30:21.866Z,6.30
2018-02-17T13:32:50.946Z,6.60
2018-02-17T13:35:21.766Z,6.30
2018-02-17T13:37:50.837Z,6.30
2018-02-17T13:40:19.910Z,6.50
2018-02-17T13:42:49.737Z,6.30
2018-02-17T13:45:18.903Z,6.20
2018-02-17T13:47:48.050Z,6.30
2018-02-17T13:50:17.147Z,6.30
2018-02-17T13:52:46.211Z,6.10
2018-02-17T13:55:15.294Z,6.10
2018-02-17T13:57:45.126Z,6.00
2018-02-17T14:00:15.088Z,5.90
2018-02-17T14:02:44.236Z,5.90
2018-02-17T14:05:14.094Z,5.80
2018-02-17T14:07:43.933Z,5.80
2018-02-17T14:10:13.005Z,5.80
2018-02-17T14:12:42.083Z,5.80
2018-02-17T14:15:11.166Z,5.90
2018-02-17T14:17:40.359Z,5.90
2018-02-17T14:20:10.201Z,6.10
2018-02-17T14:22:39.270Z,6.10
2018-02-17T14:25:08.382Z,6.00
2018-02-17T14:27:37.441Z,6.00
2018-02-17T14:30:06.541Z,6.10
2018-02-17T14:32:35.611Z,6.00
2018-02-17T14:35:04.766Z,5.90
2018-02-17T14:37:33.834Z,5.80
2018-02-17T14:40:02.910Z,5.80
2018-02-17T14:42:32.000Z,5.80
2018-02-17T14:45:01.101Z,5.70
2018-02-17T14:47:30.203Z,5.50
2018-02-17T14:50:00.029Z,5.40
2018-02-17T14:52:29.879Z,5.50
2018-02-17T14:54:59.090Z,5.50
2018-02-17T14:57:28.150Z,5.40
2018-02-17T14:59:57.213Z,5.40
2018-02-17T15:02:26.270Z,5.40
2018-02-17T15:04:55.366Z,5.40
2018-02-17T15:07:24.926Z,5.40
2018-02-17T15:09:54.823Z,5.40
2018-02-17T15:12:23.992Z,5.40
2018-02-17T15:14:53.076Z,5.30
2018-02-17T15:17:22.905Z,5.20
2018-02-17T15:19:52.773Z,5.30
2018-02-17T15:22:21.858Z,5.20
2018-02-17T15:24:50.930Z,5.20
2018-02-17T15:27:20.062Z,5.30
2018-02-17T15:29:49.903Z,5.20
2018-02-17T15:32:19.010Z,5.20
2018-02-17T15:34:48.078Z,5.20
2018-02-17T15:37:17.924Z,5.20
2018-02-17T15:39:47.781Z,5.10
2018-02-17T15:42:16.862Z,5.10
2018-02-17T15:44:46.722Z,5.00
2018-02-17T15:47:19.553Z,5.00
2018-02-17T15:49:48.621Z,5.00
2018-02-17T15:52:17.713Z,5.00
2018-02-17T15:54:47.641Z,5.00
2018-02-17T15:57:17.507Z,5.00
2018-02-17T15:59:46.594Z,5.00
2018-02-17T16:02:15.683Z,5.00
2018-02-17T16:04:44.835Z,4.90
2018-02-17T16:07:13.903Z,5.00
2018-02-17T16:09:43.803Z,4.80
2018-02-17T16:12:12.863Z,4.80
2018-02-17T16:14:42.694Z,4.80
2018-02-17T16:17:12.278Z,4.80
2018-02-17T16:19:41.603Z,4.90
2018-02-17T16:22:10.679Z,5.00
2018-02-17T16:24:39.759Z,5.00
2018-02-17T16:27:08.830Z,5.00
2018-02-17T16:29:37.962Z,5.00
2018-02-17T16:32:07.797Z,4.90
2018-02-17T16:34:36.865Z,4.80
2018-02-17T16:37:05.929Z,4.80
2018-02-17T16:39:34.993Z,4.80
2018-02-17T16:42:04.870Z,4.80
2018-02-17T16:44:33.943Z,4.80
2018-02-17T16:47:03.782Z,4.60
2018-02-17T16:49:33.641Z,4.50
2018-02-17T16:52:02.718Z,4.50
2018-02-17T16:54:32.614Z,4.40
2018-02-17T16:57:01.749Z,4.40
2018-02-17T16:59:31.622Z,4.40
2018-02-17T17:02:00.780Z,4.40
2018-02-17T17:04:29.881Z,4.40
2018-02-17T17:06:58.949Z,4.30
2018-02-17T17:09:28.014Z,4.30
2018-02-17T17:11:57.087Z,4.30
2018-02-17T17:14:26.149Z,4.30
2018-02-17T17:16:55.983Z,4.20
2018-02-17T17:19:25.819Z,4.30
2018-02-17T17:21:54.882Z,4.30
2018-02-17T17:24:23.952Z,4.30
2018-02-17T17:26:53.030Z,4.30
2018-02-17T17:29:22.878Z,4.30
2018-02-17T17:31:51.938Z,4.20
2018-02-17T17:34:21.206Z,4.30
2018-02-17T17:36:50.267Z,4.20
2018-02-17T17:39:19.358Z,4.20
2018-02-17T17:41:48.425Z,4.20
2018-02-17T17:44:17.699Z,4.20
2018-02-17T17:46:46.769Z,4.20
2018-02-17T17:49:15.912Z,4.10
2018-02-17T17:51:44.978Z,4.10
2018-02-17T17:54:14.051Z,4.20
2018-02-17T17:56:43.116Z,4.20
2018-02-17T17:59:12.185Z,4.20
2018-02-17T18:01:42.018Z,4.10
2018-02-17T18:04:11.857Z,4.20
2018-02-17T18:06:40.974Z,4.20
2018-02-17T18:09:10.073Z,4.10
2018-02-17T18:11:39.138Z,4.10
2018-02-17T18:14:08.255Z,4.10
2018-02-17T18:16:37.322Z,4.10
2018-02-17T18:19:06.393Z,4.00
2018-02-17T18:21:36.273Z,4.00
2018-02-17T18:24:05.388Z,4.00
2018-02-17T18:26:34.467Z,4.10
2018-02-17T18:29:03.544Z,4.10
2018-02-17T18:31:33.383Z,4.00
2018-02-17T18:34:03.302Z,4.00
2018-02-17T18:36:33.146Z,4.00
2018-02-17T18:39:02.230Z,4.00
2018-02-17T18:41:31.318Z,4.00
2018-02-17T18:44:00.415Z,4.00
2018-02-17T18:46:30.267Z,4.10
2018-02-17T18:49:00.204Z,4.00
2018-02-17T18:51:29.290Z,4.00
2018-02-17T18:53:58.466Z,4.00
2018-02-17T18:56:27.541Z,4.00
2018-02-17T18:58:56.663Z,4.10
2018-02-17T19:01:26.497Z,4.10
2018-02-17T19:03:56.334Z,4.00
2018-02-17T19:06:25.402Z,4.00
2018-02-17T19:08:54.546Z,4.10
2018-02-17T19:11:24.394Z,4.00
2018-02-17T19:13:53.475Z,3.90
2018-02-17T19:16:22.545Z,3.90
2018-02-17T19:18:51.639Z,3.90
2018-02-17T19:21:20.740Z,3.90
2018-02-17T19:23:49.906Z,3.90
2018-02-17T19:26:18.977Z,3.80
2018-02-17T19:28:48.045Z,3.90
2018-02-17T19:31:17.875Z,3.90
2018-02-17T19:33:47.713Z,3.90
2018-02-17T19:36:16.851Z,3.90
2018-02-17T19:38:45.961Z,3.90
2018-02-17T19:41:15.029Z,3.90
2018-02-17T19:43:44.868Z,3.90
2018-02-17T19:46:13.972Z,3.90
2018-02-17T19:48:43.058Z,3.90
2018-02-17T19:51:12.140Z,3.80
2018-02-17T19:53:41.561Z,3.90
2018-02-17T19:56:10.653Z,3.90
2018-02-17T19:58:39.746Z,3.90
2018-02-17T20:01:08.811Z,3.80
2018-02-17T20:03:37.946Z,3.80
2018-02-17T20:06:08.098Z,3.80
2018-02-17T20:08:37.174Z,3.70
2018-02-17T20:11:06.299Z,3.90
2018-02-17T20:13:36.134Z,3.80
2018-02-17T20:16:05.234Z,3.80
2018-02-17T20:18:35.070Z,3.80
2018-02-17T20:21:04.138Z,3.80
2018-02-17T20:23:33.270Z,3.80
2018-02-17T20:26:03.112Z,3.80
2018-02-17T20:28:33.062Z,3.80
2018-02-17T20:31:02.158Z,3.80
2018-02-17T20:33:32.004Z,3.70
2018-02-17T20:36:01.070Z,3.70
2018-02-17T20:38:30.150Z,3.70
2018-02-17T20:40:59.249Z,3.80
2018-02-17T20:43:28.379Z,3.80
2018-02-17T20:45:57.422Z,3.80
2018-02-17T20:48:27.265Z,3.70
2018-02-17T20:50:57.175Z,3.70
2018-02-17T20:53:26.254Z,3.70
2018-02-17T20:55:55.334Z,3.70
2018-02-17T20:58:24.451Z,3.60
2018-02-17T21:00:53.527Z,3.60
2018-02-17T21:03:23.363Z,3.60
2018-02-17T21:05:52.434Z,3.60
2018-02-17T21:08:22.422Z,3.60
2018-02-17T21:10:51.483Z,3.60
2018-02-17T21:13:20.629Z,3.60
2018-02-17T21:15:49.690Z,3.60
2018-02-17T21:18:18.763Z,3.60
2018-02-17T21:20:47.832Z,3.60
2018-02-17T21:23:17.675Z,3.60
2018-02-17T21:25:47.509Z,3.70
2018-02-17T21:28:17.362Z,3.70
2018-02-17T21:30:46.494Z,3.70
2018-02-17T21:33:15.558Z,3.70
2018-02-17T21:35:44.621Z,3.60
2018-02-17T21:38:13.686Z,3.60
2018-02-17T21:40:42.810Z,3.60
2018-02-17T21:43:11.882Z,3.70
2018-02-17T21:45:41.714Z,3.50
2018-02-17T21:48:11.605Z,3.40
2018-02-17T21:50:40.669Z,3.40
2018-02-17T21:53:09.765Z,3.40
2018-02-17T21:55:39.593Z,3.50
2018-02-17T21:58:08.665Z,3.50
2018-02-17T22:00:37.783Z,3.60
2018-02-17T22:03:06.865Z,3.50
2018-02-17T22:05:35.963Z,3.40
2018-02-17T22:08:05.055Z,3.40
2018-02-17T22:10:34.178Z,3.40
2018-02-17T22:13:03.259Z,3.30
2018-02-17T22:15:33.213Z,3.50
2018-02-17T22:18:02.279Z,3.40
2018-02-17T22:20:31.341Z,3.50
2018-02-17T22:23:00.706Z,3.50
2018-02-17T22:25:29.770Z,3.60
2018-02-17T22:27:58.837Z,3.50
2018-02-17T22:30:28.675Z,3.40
2018-02-17T22:32:57.769Z,3.40
2018-02-17T22:35:27.601Z,3.40
2018-02-17T22:37:56.680Z,3.30
2018-02-17T22:40:25.813Z,3.50
2018-02-17T22:42:54.886Z,3.50
2018-02-17T22:45:23.957Z,3.50
2018-02-17T22:47:53.032Z,3.40
2018-02-17T22:50:22.349Z,3.40
2018-02-17T22:52:51.497Z,3.50
2018-02-17T22:55:21.273Z,3.40
2018-02-17T22:57:50.386Z,3.30
2018-02-17T23:00:31.209Z,3.30
2018-02-17T23:03:01.058Z,3.20
2018-02-17T23:05:30.174Z,3.10
2018-02-17T23:07:59.239Z,3.20
2018-02-17T23:10:28.314Z,3.10
2018-02-17T23:12:57.388Z,3.20
2018-02-17T23:15:27.265Z,3.30
2018-02-17T23:17:56.338Z,3.30
2018-02-17T23:20:25.414Z,3.30
2018-02-17T23:22:55.246Z,3.30
2018-02-17T23:25:25.078Z,3.20
2018-02-17T23:27:54.943Z,3.10
2018-02-17T23:30:24.042Z,3.10
2018-02-17T23:32:53.184Z,3.00
2018-02-17T23:35:22.250Z,3.10
2018-02-17T23:37:51.333Z,3.20
2018-02-17T23:40:20.430Z,3.30
2018-02-17T23:42:49.533Z,3.20
2018-02-17T23:45:18.627Z,3.00
2018-02-17T23:47:48.691Z,3.10
2018-02-17T23:50:17.785Z,3.10
2018-02-17T23:52:46.858Z,3.20
2018-02-17T23:55:16.030Z,3.30
2018-02-17T23:57:45.102Z,3.30
